Lombardville, Illinois
Current Conditions -  °F | °C
As of 9:15 PM on Monday 26 Jan 2015 (Local Time) from KC75 Reporting Station
Haze Haze  
Wind Chill: 29°   Ceiling: 1400
Heat Index: 29°   Visibility: 3mi
Dew Point: 28°   Wind: 0mph
Humidity: 96%   Direction: NA
Pressure: 29.88"   Gusts: NA
Location:  41.1472°N, 89.6399°W
Report Text: KC75 270315Z AUTO 00000KT 3SM BR SCT004 BKN014 OVC036 M02/M02 A2988 RMK AO2 T10161022
Loading
Personal Weather Stations






























Interactive Weather Map New forecast layout! Learn more

10-Day Weather Forecast

Advertisements
Track Severe Weather on mobile